createdAt,value
2018-04-13T00:00:37.144Z,97276.89
2018-04-13T00:03:04.553Z,97277.20
2018-04-13T00:05:31.935Z,97289.75
2018-04-13T00:07:59.347Z,97288.56
2018-04-13T00:10:26.754Z,97297.64
2018-04-13T00:12:54.152Z,97293.70
2018-04-13T00:15:21.550Z,97289.61
2018-04-13T00:17:48.943Z,97289.26
2018-04-13T00:20:16.349Z,97289.09
2018-04-13T00:22:43.744Z,97291.34
2018-04-13T00:25:11.139Z,97292.31
2018-04-13T00:27:38.646Z,97292.91
2018-04-13T00:30:06.029Z,97296.97
2018-04-13T00:32:33.434Z,97292.59
2018-04-13T00:35:00.828Z,97291.20
2018-04-13T00:37:28.227Z,97288.19
2018-04-13T00:39:55.620Z,97295.63
2018-04-13T00:42:23.032Z,97299.16
2018-04-13T04:20:50.402Z,97392.88
2018-04-13T04:23:29.598Z,97397.55
2018-04-13T04:26:08.741Z,97396.88
2018-04-13T04:28:36.354Z,97397.49
2018-04-13T10:40:04.689Z,97982.28
2018-04-13T11:00:30.046Z,98017.45
2018-04-13T11:02:57.540Z,98023.95
2018-04-13T11:05:25.057Z,98027.45
2018-04-13T13:00:45.101Z,98281.14
2018-04-13T13:03:12.549Z,98276.80
2018-04-13T13:05:39.987Z,98282.25
2018-04-13T13:08:07.469Z,98290.16
2018-04-13T15:55:14.276Z,98415.66
2018-04-13T15:57:41.712Z,98418.18
2018-04-13T16:00:09.240Z,98418.66
2018-04-13T16:02:36.856Z,98414.83
2018-04-13T16:05:04.380Z,98410.95
2018-04-13T16:07:31.940Z,98416.27
2018-04-13T16:09:59.378Z,98415.48
2018-04-13T16:12:26.861Z,98412.98
2018-04-13T16:14:54.314Z,98417.85
2018-04-13T16:17:21.801Z,98416.03
2018-04-13T16:19:49.284Z,98425.97
2018-04-13T16:22:16.827Z,98421.36
2018-04-13T16:24:44.340Z,98426.30
2018-04-13T16:27:11.778Z,98421.06
2018-04-13T16:29:39.437Z,98419.85
2018-04-13T16:32:06.879Z,98416.80
2018-04-13T16:34:34.352Z,98405.85
2018-04-13T16:37:01.851Z,98407.81
2018-04-13T16:39:29.621Z,98405.27
2018-04-13T16:41:57.156Z,98403.78
2018-04-13T16:44:24.679Z,98411.81
2018-04-13T16:46:52.164Z,98417.81
2018-04-13T16:49:19.625Z,98426.44
2018-04-13T16:51:47.069Z,98430.54
2018-04-13T16:54:16.491Z,98435.77
2018-04-13T16:56:44.079Z,98433.59
2018-04-13T16:59:11.565Z,98434.75
2018-04-13T17:01:38.987Z,98441.95
2018-04-13T17:04:06.412Z,98444.42
2018-04-13T17:06:33.953Z,98441.60
2018-04-13T17:09:01.445Z,98437.07
2018-04-13T17:11:28.969Z,98442.52
2018-04-13T17:13:56.431Z,98442.94
2018-04-13T17:16:25.041Z,98445.23
2018-04-13T17:18:52.570Z,98457.23
2018-04-13T17:21:22.105Z,98451.80
2018-04-13T17:23:49.542Z,98446.20
2018-04-13T17:26:17.034Z,98455.75
2018-04-13T17:28:44.532Z,98460.02
2018-04-13T17:31:12.010Z,98458.69
2018-04-13T17:33:39.469Z,98467.89
2018-04-13T17:36:07.006Z,98473.41
2018-04-13T17:38:34.514Z,98474.45
2018-04-13T17:41:02.042Z,98475.68
2018-04-13T17:43:29.631Z,98472.59
2018-04-13T17:45:57.173Z,98487.01
2018-04-13T17:50:58.456Z,98493.20
2018-04-13T17:53:25.894Z,98494.41
2018-04-13T17:55:53.988Z,98501.76
2018-04-13T17:58:21.437Z,98502.17
2018-04-13T18:00:48.905Z,98505.95
2018-04-13T18:03:16.401Z,98512.32
2018-04-13T18:05:43.877Z,98522.66
2018-04-13T18:08:11.554Z,98521.84
2018-04-13T18:10:39.099Z,98518.22
2018-04-13T18:13:06.658Z,98519.19
2018-04-13T18:15:34.133Z,98529.66
2018-04-13T18:18:01.743Z,98524.33
2018-04-13T18:20:29.433Z,98535.97
2018-04-13T18:22:56.888Z,98538.28
2018-04-13T18:25:24.480Z,98539.94
2018-04-13T18:27:51.999Z,98532.72
2018-04-13T18:30:19.533Z,98543.06
2018-04-13T18:32:47.026Z,98543.39
2018-04-13T18:35:14.638Z,98545.17
2018-04-13T18:37:42.188Z,98551.13
2018-04-13T18:40:09.698Z,98555.69
2018-04-13T18:42:37.165Z,98561.69
2018-04-13T18:45:04.664Z,98566.59
2018-04-13T18:47:32.182Z,98573.84
2018-04-13T18:49:59.714Z,98578.89
2018-04-13T18:52:27.202Z,98575.47
2018-04-13T18:54:54.747Z,98587.96
2018-04-13T18:57:22.383Z,98586.50
2018-04-13T18:59:49.912Z,98588.02
2018-04-13T19:02:17.369Z,98584.39
2018-04-13T19:04:44.868Z,98586.31
2018-04-13T19:07:12.428Z,98583.31
2018-04-13T19:09:39.956Z,98595.05
2018-04-13T19:12:07.495Z,98596.84
2018-04-13T19:14:34.965Z,98598.20
2018-04-13T19:17:02.480Z,98592.51
2018-04-13T19:19:29.953Z,98595.80
2018-04-13T19:21:57.430Z,98596.73
2018-04-13T19:24:24.903Z,98595.37
2018-04-13T19:26:56.181Z,98601.19
2018-04-13T19:29:23.708Z,98601.61
2018-04-13T19:31:51.184Z,98608.88
2018-04-13T19:34:18.759Z,98610.21
2018-04-13T19:36:46.326Z,98619.75
2018-04-13T19:39:13.909Z,98626.42
2018-04-13T19:41:41.536Z,98624.52
2018-04-13T19:44:09.053Z,98636.34
2018-04-13T19:46:36.564Z,98637.21
2018-04-13T19:49:04.117Z,98643.27
2018-04-13T19:51:31.647Z,98642.80
2018-04-13T19:53:59.198Z,98639.45
2018-04-13T19:56:26.690Z,98641.30
2018-04-13T19:58:54.173Z,98649.70
2018-04-13T20:01:21.709Z,98642.28
2018-04-13T20:03:49.203Z,98647.25
2018-04-13T20:06:16.700Z,98651.84
2018-04-13T20:08:44.219Z,98655.88
2018-04-13T20:11:11.868Z,98654.75
2018-04-13T20:13:39.299Z,98655.52
2018-04-13T20:16:06.773Z,98652.94
2018-04-13T20:18:34.229Z,98652.09
2018-04-13T20:21:01.690Z,98652.22
2018-04-13T20:23:29.268Z,98648.67
2018-04-13T20:25:56.784Z,98656.36
2018-04-13T20:28:24.305Z,98652.52
2018-04-13T20:30:51.802Z,98654.83
2018-04-13T20:33:19.245Z,98651.93
2018-04-13T20:35:46.730Z,98654.61
2018-04-13T20:38:14.445Z,98658.34
2018-04-13T20:40:41.963Z,98662.59
2018-04-13T20:43:09.513Z,98668.45
2018-04-13T20:45:37.180Z,98666.13
2018-04-13T20:48:04.654Z,98675.63
2018-04-13T20:50:32.103Z,98672.50
2018-04-13T20:52:59.564Z,98672.03
2018-04-13T20:55:27.114Z,98673.63
2018-04-13T20:57:54.705Z,98671.20
2018-04-13T21:00:22.203Z,98674.16
2018-04-13T21:02:49.711Z,98667.75
2018-04-13T21:05:17.294Z,98670.02
2018-04-13T21:13:45.453Z,98674.35
2018-04-13T21:16:13.020Z,98680.44
2018-04-13T21:18:40.643Z,98680.75
2018-04-13T21:21:08.386Z,98682.39
2018-04-13T21:23:35.906Z,98683.54
2018-04-13T21:26:03.466Z,98680.05
2018-04-13T21:28:30.971Z,98689.17
2018-04-13T21:30:58.442Z,98694.80
2018-04-13T21:33:25.947Z,98696.17
2018-04-13T21:35:53.513Z,98692.59
2018-04-13T21:38:21.016Z,98691.13
2018-04-13T21:40:48.468Z,98689.71
2018-04-13T21:43:16.097Z,98694.11
2018-04-13T21:45:43.632Z,98691.13
2018-04-13T21:48:11.186Z,98700.76
2018-04-13T21:50:39.209Z,98699.94
2018-04-13T21:53:06.715Z,98704.74
2018-04-13T21:55:34.277Z,98709.40
2018-04-13T21:58:01.845Z,98713.51
2018-04-13T22:02:42.885Z,98713.94
2018-04-13T22:05:10.501Z,98721.26
2018-04-13T22:07:40.157Z,98725.67
2018-04-13T22:10:07.763Z,98734.68
2018-04-13T22:12:47.012Z,98731.77
2018-04-13T22:15:14.578Z,98731.89
2018-04-13T22:17:42.018Z,98726.17
2018-04-13T22:20:10.410Z,98723.46
2018-04-13T22:22:37.986Z,98729.69
2018-04-13T22:25:05.538Z,98732.91
2018-04-13T22:27:33.008Z,98738.78
2018-04-13T22:30:00.541Z,98734.69
2018-04-13T22:32:27.986Z,98734.80
2018-04-13T22:34:55.512Z,98736.20
2018-04-13T22:37:23.135Z,98741.05
2018-04-13T22:39:54.641Z,98747.16
2018-04-13T22:42:22.129Z,98743.39
2018-04-13T22:44:49.641Z,98743.64
2018-04-13T22:47:17.150Z,98749.52
2018-04-13T22:49:44.706Z,98759.36
2018-04-13T22:52:12.236Z,98763.34
2018-04-13T22:54:39.668Z,98767.36
2018-04-13T22:57:07.170Z,98761.49
2018-04-13T22:59:34.725Z,98757.02
2018-04-13T23:02:02.330Z,98759.59
2018-04-13T23:04:29.824Z,98762.52
2018-04-13T23:06:57.364Z,98764.06
2018-04-13T23:09:24.845Z,98772.48
2018-04-13T23:11:52.556Z,98773.40
2018-04-13T23:14:20.017Z,98771.03
2018-04-13T23:16:47.930Z,98783.00
2018-04-13T23:19:15.399Z,98778.69
2018-04-13T23:21:42.999Z,98783.31
2018-04-13T23:24:10.466Z,98783.50
2018-04-13T23:26:37.878Z,98784.55
2018-04-13T23:29:05.337Z,98783.39
2018-04-13T23:31:33.038Z,98778.58
2018-04-13T23:34:01.540Z,98782.47
2018-04-13T23:36:28.995Z,98787.58
2018-04-13T23:38:56.476Z,98790.48
2018-04-13T23:41:23.948Z,98794.24
2018-04-13T23:44:00.462Z,98796.33
2018-04-13T23:46:27.961Z,98803.87
2018-04-13T23:48:55.432Z,98808.33
2018-04-13T23:51:22.927Z,98808.22
2018-04-13T23:53:50.432Z,98811.61
2018-04-13T23:56:17.869Z,98804.25
2018-04-13T23:58:45.396Z,98800.88
